Terminal Aerodrome Forecast
Issued by NWS Quad Cities IA IL

Home | Current Version | Previous Version | Text Only | Print | Product List | Glossary On
Versions: 1 2 3 4 5 6 7 8 9 10 11 12 13 14 15 16 17 18
428
FTUS43 KDVN 202331
TAFMLI
TAF
KMLI 202331Z 2100/2124 15010KT 5SM -SHRA OVC050
      TEMPO 2101/2103 3SM TSRA OVC025CB
     FM210300 20008KT 4SM -SHRA BR VCTS OVC030CB
     FM210700 26006KT 2SM BR OVC008
     FM211400 32005KT P6SM SCT015=

USA.gov is the U.S. government's official web portal to all federal, state and local government web resources and services.